Time;durP1;ratioP1;P1;durP2;ratioP2;P2;SDS_P1;SDS_P2;PMS_P1;PMS_P2;Temp;Humidity;BMP_temperature;BMP_pressure;BME280_temperature;BME280_humidity;BME280_pressure;Samples;Min_cycle;Max_cycle;Signal;HPM_P1;HPM_P2
2021/03/24 00:01:13;;;;;;;233.38;90.43;;;2.20;99.90;;;;;;5094716;28;20485;-64
2021/03/24 00:03:39;;;;;;;246.07;91.38;;;2.20;99.90;;;;;;5077546;28;20024;-63
2021/03/24 00:06:05;;;;;;;236.57;93.65;;;2.20;99.90;;;;;;5094708;28;20020;-64
2021/03/24 00:08:31;;;;;;;219.00;89.30;;;2.10;99.90;;;;;;5094812;28;20073;-64
2021/03/24 00:10:56;;;;;;;232.40;91.78;;;2.10;99.90;;;;;;5094813;28;20024;-64
2021/03/24 00:13:22;;;;;;;226.18;87.85;;;2.00;99.90;;;;;;5094779;28;20461;-64
2021/03/24 00:15:48;;;;;;;227.85;91.63;;;2.00;99.90;;;;;;5094529;28;20054;-63
2021/03/24 00:18:14;;;;;;;223.50;89.68;;;1.90;99.90;;;;;;5094792;28;20099;-63
2021/03/24 00:20:41;;;;;;;220.27;86.57;;;1.90;99.90;;;;;;5076096;28;20024;-64
2021/03/24 00:23:07;;;;;;;217.13;83.97;;;1.90;99.90;;;;;;5094068;28;20465;-63
2021/03/24 00:25:34;;;;;;;207.48;78.10;;;1.90;99.90;;;;;;5094651;28;20055;-64
2021/03/24 00:28:00;;;;;;;201.40;79.25;;;1.90;99.90;;;;;;5094603;28;20150;-63
2021/03/24 00:30:30;;;;;;;207.00;81.22;;;1.90;99.90;;;;;;5094631;28;20055;-64
2021/03/24 00:32:56;;;;;;;211.23;82.00;;;1.80;99.90;;;;;;5093954;28;20023;-63
2021/03/24 00:35:22;;;;;;;208.35;80.00;;;1.80;99.90;;;;;;5092757;28;20034;-63
2021/03/24 00:37:49;;;;;;;215.77;81.00;;;1.80;99.90;;;;;;5092719;28;20531;-63
2021/03/24 00:40:19;;;;;;;225.70;85.57;;;1.80;99.90;;;;;;5093851;28;20036;-63
2021/03/24 00:42:45;;;;;;;217.25;79.50;;;1.70;99.90;;;;;;5094338;28;20024;-64
2021/03/24 00:45:13;;;;;;;217.60;82.75;;;1.70;99.90;;;;;;5094331;28;20020;-63
2021/03/24 00:47:39;;;;;;;247.80;92.72;;;1.70;99.90;;;;;;5094315;28;20016;-64
2021/03/24 00:50:06;;;;;;;228.48;85.93;;;1.70;99.90;;;;;;5093965;28;20099;-63
2021/03/24 00:52:31;;;;;;;247.30;88.60;;;1.80;99.90;;;;;;5092739;28;20023;-64
2021/03/24 00:54:57;;;;;;;219.30;85.07;;;1.80;99.90;;;;;;5092762;28;20024;-64
2021/03/24 00:57:23;;;;;;;223.52;89.70;;;1.70;99.90;;;;;;5092532;28;20020;-63
2021/03/24 00:59:48;;;;;;;224.18;83.28;;;1.70;99.90;;;;;;5092334;28;20025;-63
2021/03/24 01:02:14;;;;;;;225.75;83.78;;;1.60;99.90;;;;;;5093339;28;20056;-64
2021/03/24 01:04:40;;;;;;;230.93;87.03;;;1.60;99.90;;;;;;5094063;28;20017;-63
2021/03/24 01:07:09;;;;;;;226.43;87.38;;;1.60;99.90;;;;;;5094101;28;20117;-63
2021/03/24 01:09:34;;;;;;;224.93;82.75;;;1.60;99.90;;;;;;5094083;28;20453;-63
2021/03/24 01:12:00;;;;;;;216.07;82.15;;;1.60;99.90;;;;;;5093956;28;20031;-63
2021/03/24 01:14:25;;;;;;;220.25;82.93;;;1.60;99.90;;;;;;5093974;28;20024;-64
2021/03/24 01:16:51;;;;;;;238.02;84.40;;;1.60;99.90;;;;;;5093924;28;20449;-63
2021/03/24 01:19:17;;;;;;;244.40;88.10;;;1.60;99.90;;;;;;5092111;28;20036;-63
2021/03/24 01:21:42;;;;;;;235.45;81.82;;;1.70;99.90;;;;;;5093777;28;20035;-63
2021/03/24 01:24:08;;;;;;;245.48;89.05;;;1.70;99.90;;;;;;5093860;28;20035;-63
2021/03/24 01:26:33;;;;;;;258.70;91.43;;;1.80;99.90;;;;;;5093876;28;20044;-63
2021/03/24 01:28:59;;;;;;;234.15;83.45;;;1.80;99.90;;;;;;5093802;28;20461;-63
2021/03/24 01:31:27;;;;;;;239.70;84.97;;;1.80;99.90;;;;;;5093868;28;20028;-64
2021/03/24 01:33:52;;;;;;;225.25;81.60;;;1.80;99.90;;;;;;5093560;28;20460;-63
2021/03/24 01:36:18;;;;;;;221.57;82.38;;;1.70;99.90;;;;;;5075230;28;20032;-63
2021/03/24 01:38:43;;;;;;;232.57;83.85;;;1.60;99.90;;;;;;5092297;28;20024;-63
2021/03/24 01:41:09;;;;;;;218.88;81.18;;;1.60;99.90;;;;;;5091841;28;20032;-63
2021/03/24 01:43:36;;;;;;;226.60;82.95;;;1.50;99.90;;;;;;5092169;28;20031;-64
2021/03/24 01:46:30;;;;;;;222.68;82.05;;;1.50;99.90;;;;;;5093742;28;20070;-63
2021/03/24 01:49:21;;;;;;;229.55;83.07;;;1.40;99.90;;;;;;5093118;28;20361;-63
2021/03/24 01:51:51;;;;;;;246.00;83.57;;;1.50;99.90;;;;;;5093632;28;20028;-64
2021/03/24 01:54:21;;;;;;;216.65;81.25;;;1.50;99.90;;;;;;5075384;28;20036;-64
2021/03/24 01:56:52;;;;;;;216.77;82.47;;;1.50;99.90;;;;;;5093594;28;20542;-63
2021/03/24 01:59:18;;;;;;;214.88;79.43;;;1.50;99.90;;;;;;5093032;28;20028;-63
2021/03/24 02:01:43;;;;;;;229.30;83.68;;;1.50;99.90;;;;;;5092911;28;20044;-63
2021/03/24 02:04:09;;;;;;;213.48;80.63;;;1.40;99.90;;;;;;5074965;28;20085;-64
2021/03/24 02:07:05;;;;;;;230.57;84.15;;;1.40;99.90;;;;;;5093552;28;20025;-63
2021/03/24 02:10:10;;;;;;;205.98;78.75;;;1.40;99.90;;;;;;5094475;28;20020;-63
2021/03/24 02:12:52;;;;;;;225.63;81.45;;;1.40;99.90;;;;;;5097022;28;20085;-64
2021/03/24 02:15:35;;;;;;;215.90;81.40;;;1.40;99.90;;;;;;5096843;28;20518;-63
2021/03/24 02:18:02;;;;;;;165.13;60.13;;;1.40;99.90;;;;;;5097039;28;20032;-63
2021/03/24 02:20:35;;;;;;;235.10;83.38;;;1.30;99.90;;;;;;5097064;28;20031;-63
2021/03/24 02:23:32;;;;;;;226.48;79.05;;;1.40;99.90;;;;;;5096861;28;20419;-63
2021/03/24 02:28:52;;;;;;;226.80;79.00;;;1.40;99.90;;;;;;5112179;27;20734;-63
2021/03/24 02:31:22;;;;;;;225.32;82.28;;;1.40;99.90;;;;;;5110491;28;20376;-63
2021/03/24 02:33:49;;;;;;;227.20;83.05;;;1.40;99.90;;;;;;5110932;28;20077;-64
2021/03/24 02:36:17;;;;;;;214.98;78.18;;;1.40;99.90;;;;;;5111822;28;20395;-63
2021/03/24 02:38:44;;;;;;;212.93;78.60;;;1.30;99.90;;;;;;5111773;28;20024;-63
2021/03/24 02:41:12;;;;;;;210.77;76.53;;;1.30;99.90;;;;;;5111755;28;20123;-63
2021/03/24 02:43:41;;;;;;;219.07;79.38;;;1.30;99.90;;;;;;5111756;28;20358;-63
2021/03/24 02:46:09;;;;;;;202.65;76.95;;;1.20;99.90;;;;;;5111673;28;20069;-63
2021/03/24 02:48:37;;;;;;;196.18;75.05;;;1.20;99.90;;;;;;5111285;28;20020;-63
2021/03/24 02:51:06;;;;;;;201.00;76.32;;;1.20;99.90;;;;;;5111585;28;20012;-63
2021/03/24 02:53:34;;;;;;;207.55;75.97;;;1.10;99.90;;;;;;5110946;28;20032;-63
2021/03/24 02:56:04;;;;;;;200.35;72.60;;;1.10;99.90;;;;;;5111221;28;20031;-64
2021/03/24 02:58:30;;;;;;;184.60;71.28;;;1.10;99.90;;;;;;5111407;28;20016;-63
2021/03/24 03:00:57;;;;;;;208.90;76.28;;;1.10;99.90;;;;;;5111096;28;20027;-64
2021/03/24 03:03:29;;;;;;;198.63;75.18;;;1.10;99.90;;;;;;5111328;28;20020;-63
2021/03/24 03:05:58;;;;;;;205.60;74.70;;;1.10;99.90;;;;;;5111281;28;20094;-63
2021/03/24 03:08:34;;;;;;;197.02;74.68;;;1.10;99.90;;;;;;5110000;28;20114;-63
2021/03/24 03:11:15;;;;;;;194.25;74.43;;;1.10;99.90;;;;;;5110938;28;20022;-63
2021/03/24 03:13:53;;;;;;;201.95;74.63;;;1.10;99.90;;;;;;5110886;28;20024;-64
2021/03/24 03:16:46;;;;;;;195.30;76.65;;;1.10;99.90;;;;;;5110775;28;20354;-63
2021/03/24 03:19:27;;;;;;;213.18;80.60;;;1.10;99.90;;;;;;5110688;28;20067;-64
2021/03/24 03:21:58;;;;;;;228.55;82.30;;;1.20;99.90;;;;;;5110963;28;20101;-63
2021/03/24 03:24:26;;;;;;;219.30;78.15;;;1.20;99.90;;;;;;5110883;28;20032;-63
2021/03/24 03:26:56;;;;;;;209.70;76.88;;;1.20;99.90;;;;;;5110516;28;20048;-63
2021/03/24 03:29:22;;;;;;;211.55;78.63;;;1.20;99.90;;;;;;5110857;28;20426;-63
2021/03/24 03:31:51;;;;;;;229.23;79.47;;;1.20;99.90;;;;;;5110795;28;20019;-63
2021/03/24 03:34:21;;;;;;;221.73;81.43;;;1.20;99.90;;;;;;5110735;28;20016;-63
2021/03/24 03:36:50;;;;;;;231.57;83.03;;;1.20;99.90;;;;;;5092385;28;20028;-63
2021/03/24 03:39:19;;;;;;;208.15;78.20;;;1.20;99.90;;;;;;5102016;28;20556;-63
2021/03/24 03:41:46;;;;;;;213.45;78.22;;;1.20;99.90;;;;;;5097003;28;20032;-64
2021/03/24 03:44:14;;;;;;;212.40;79.85;;;1.20;99.90;;;;;;5096410;28;20123;-63
2021/03/24 03:46:46;;;;;;;221.75;79.50;;;1.20;99.90;;;;;;5096881;28;20028;-63
2021/03/24 03:49:12;;;;;;;225.90;83.18;;;1.20;99.90;;;;;;5096618;28;20020;-63
2021/03/24 03:52:04;;;;;;;245.55;83.43;;;1.10;99.90;;;;;;5096840;28;20369;-63
2021/03/24 03:54:35;;;;;;;238.98;81.93;;;1.10;99.90;;;;;;5096097;28;20024;-63
2021/03/24 03:57:07;;;;;;;251.38;85.22;;;1.10;99.90;;;;;;5096733;28;20020;-63
2021/03/24 03:59:43;;;;;;;238.50;84.60;;;1.20;99.90;;;;;;5096418;28;20400;-63
2021/03/24 04:02:14;;;;;;;256.00;88.30;;;1.10;99.90;;;;;;5096078;28;20024;-63
2021/03/24 04:04:47;;;;;;;223.00;84.63;;;1.20;99.90;;;;;;5094952;28;20054;-63
2021/03/24 04:07:52;;;;;;;227.32;82.97;;;1.10;99.90;;;;;;5094968;28;20027;-63
2021/03/24 04:10:19;;;;;;;206.70;76.18;;;1.10;99.90;;;;;;5095437;28;20092;-63
2021/03/24 04:12:45;;;;;;;229.10;82.97;;;1.10;99.90;;;;;;5095857;28;20016;-63
2021/03/24 04:15:14;;;;;;;235.38;82.95;;;1.00;99.90;;;;;;5094570;28;20048;-63
2021/03/24 04:17:48;;;;;;;212.40;79.10;;;1.00;99.90;;;;;;5095195;28;20049;-63
2021/03/24 04:20:17;;;;;;;213.82;77.78;;;1.00;99.90;;;;;;5094578;28;20024;-63
2021/03/24 04:22:44;;;;;;;205.07;76.45;;;0.90;99.90;;;;;;5094977;28;20039;-63
2021/03/24 04:25:17;;;;;;;197.13;72.28;;;0.90;99.90;;;;;;5094353;28;20389;-63
2021/03/24 04:27:46;;;;;;;184.52;71.97;;;0.90;99.90;;;;;;5095502;28;20044;-63
2021/03/24 04:30:15;;;;;;;200.23;75.82;;;0.80;99.90;;;;;;5095576;28;20024;-63
2021/03/24 04:32:41;;;;;;;203.00;77.63;;;0.80;99.90;;;;;;5096052;28;20020;-63
2021/03/24 04:35:07;;;;;;;214.63;76.50;;;0.80;99.90;;;;;;5095495;28;20484;-63
2021/03/24 04:37:47;;;;;;;194.65;73.82;;;0.90;99.90;;;;;;5095677;28;20024;-63
2021/03/24 04:40:35;;;;;;;197.32;74.03;;;0.80;99.90;;;;;;5095854;28;20020;-63
2021/03/24 04:43:07;;;;;;;217.02;75.65;;;0.80;99.90;;;;;;5095881;28;20024;-63
2021/03/24 04:45:55;;;;;;;173.48;61.53;;;0.80;99.90;;;;;;5095777;28;20051;-63
2021/03/24 04:48:26;;;;;;;188.52;71.50;;;0.80;99.90;;;;;;5095164;28;20039;-63
2021/03/24 04:51:10;;;;;;;194.55;73.43;;;0.70;99.90;;;;;;5094151;28;20521;-63
2021/03/24 04:53:41;;;;;;;203.68;75.32;;;0.70;99.90;;;;;;5095643;28;20028;-63
2021/03/24 04:56:09;;;;;;;192.77;69.97;;;0.70;99.90;;;;;;5095606;28;20410;-63
2021/03/24 04:58:38;;;;;;;198.75;73.60;;;0.70;99.90;;;;;;5095219;28;20345;-63
2021/03/24 05:01:28;;;;;;;208.00;73.93;;;0.70;99.90;;;;;;5095478;28;20467;-63
2021/03/24 05:03:59;;;;;;;190.63;70.55;;;0.70;99.90;;;;;;5094865;28;20099;-63
2021/03/24 05:06:33;;;;;;;196.95;74.75;;;0.70;99.90;;;;;;5095351;28;20403;-63
2021/03/24 05:09:00;;;;;;;195.73;73.65;;;0.60;99.90;;;;;;5093525;28;20028;-63
2021/03/24 05:11:32;;;;;;;182.85;66.80;;;0.60;99.90;;;;;;5095332;28;20020;-63
2021/03/24 05:14:24;;;;;;;203.02;73.82;;;0.60;99.90;;;;;;5093857;28;20526;-63
2021/03/24 05:16:53;;;;;;;186.43;69.00;;;0.50;99.90;;;;;;5094593;28;20035;-63
2021/03/24 05:19:22;;;;;;;207.25;73.40;;;0.50;99.90;;;;;;5095299;28;20468;-63
2021/03/24 05:21:59;;;;;;;207.65;71.00;;;0.50;99.90;;;;;;5095116;28;20112;-63
2021/03/24 05:24:31;;;;;;;199.77;73.30;;;0.60;99.90;;;;;;5095066;28;20028;-63
2021/03/24 05:27:03;;;;;;;216.82;74.32;;;0.60;99.90;;;;;;5094196;28;20080;-63
2021/03/24 05:29:36;;;;;;;184.95;70.28;;;0.60;99.90;;;;;;5094986;28;20023;-63
2021/03/24 05:32:03;;;;;;;;;;;0.60;99.90;;;;;;5095392;28;20044;-63
2021/03/24 05:34:33;;;;;;;178.27;65.90;;;0.60;99.90;;;;;;5094836;28;19904;-63
2021/03/24 05:37:00;;;;;;;204.60;72.57;;;0.60;99.90;;;;;;5094841;28;20020;-63
2021/03/24 05:39:30;;;;;;;191.10;68.80;;;0.60;99.90;;;;;;5094585;28;20031;-63
2021/03/24 05:45:15;;;;;;;197.20;69.57;;;0.80;99.90;;;;;;5112198;27;20404;-64
2021/03/24 05:50:42;;;;;;;182.85;69.47;;;0.90;99.90;;;;;;5112195;27;20900;-64
2021/03/24 05:53:47;;;;;;;172.73;66.53;;;1.30;99.90;;;;;;5111948;28;20089;-64
2021/03/24 05:56:38;;;;;;;172.57;66.88;;;1.50;99.90;;;;;;5111760;28;20024;-64
2021/03/24 05:59:32;;;;;;;162.40;60.63;;;1.70;99.90;;;;;;5111148;28;20024;-64
2021/03/24 06:02:06;;;;;;;149.75;61.53;;;1.80;99.90;;;;;;5111113;28;20020;-64
2021/03/24 06:04:38;;;;;;;146.48;59.30;;;1.90;99.90;;;;;;5109855;28;20118;-64
2021/03/24 06:07:32;;;;;;;131.48;55.92;;;2.10;99.90;;;;;;5111402;28;20048;-64
2021/03/24 06:10:26;;;;;;;121.70;52.80;;;2.30;99.90;;;;;;5110834;28;20028;-64
2021/03/24 06:13:28;;;;;;;112.53;52.33;;;2.50;99.90;;;;;;5111167;28;20032;-64
2021/03/24 06:16:19;;;;;;;107.28;49.13;;;2.70;99.90;;;;;;5110929;28;20071;-64
2021/03/24 06:18:59;;;;;;;109.25;49.97;;;3.00;99.90;;;;;;5110861;28;20024;-64
2021/03/24 06:22:03;;;;;;;107.32;50.40;;;3.30;99.90;;;;;;5111385;28;20020;-64
2021/03/24 06:24:53;;;;;;;96.40;47.17;;;3.60;99.90;;;;;;5110653;28;20612;-64
2021/03/24 06:27:48;;;;;;;91.05;46.13;;;3.90;99.90;;;;;;5111227;28;20030;-64
2021/03/24 06:30:29;;;;;;;92.53;46.20;;;4.30;99.90;;;;;;5110907;28;20115;-64
2021/03/24 06:33:29;;;;;;;86.72;44.75;;;4.80;99.90;;;;;;5111157;28;20020;-65
2021/03/24 06:36:10;;;;;;;97.25;45.83;;;5.50;99.90;;;;;;5093188;28;20369;-65
2021/03/24 06:38:59;;;;;;;91.80;43.95;;;6.10;99.90;;;;;;5111007;28;20515;-65
2021/03/24 06:41:52;;;;;;;85.60;44.20;;;6.70;99.90;;;;;;5110397;28;20027;-65
2021/03/24 06:44:42;;;;;;;77.75;43.20;;;7.20;99.90;;;;;;5092265;28;20349;-65
2021/03/24 06:47:53;;;;;;;82.75;43.10;;;7.60;99.90;;;;;;5109105;28;20030;-64
2021/03/24 06:50:53;;;;;;;78.25;41.80;;;8.00;99.90;;;;;;5110044;28;20435;-65
2021/03/24 06:53:50;;;;;;;71.55;42.63;;;8.30;99.90;;;;;;5108804;28;20062;-65
2021/03/24 06:56:51;;;;;;;78.00;42.55;;;8.90;99.90;;;;;;5110262;28;20425;-65
2021/03/24 06:59:47;;;;;;;72.10;41.70;;;8.90;99.90;;;;;;5110335;28;20066;-65
2021/03/24 07:02:41;;;;;;;69.88;40.55;;;9.40;99.90;;;;;;5096311;28;20472;-65
2021/03/24 07:05:47;;;;;;;69.40;41.80;;;9.70;99.90;;;;;;5096197;28;20028;-65
2021/03/24 07:08:52;;;;;;;62.85;39.65;;;9.80;99.90;;;;;;5091554;28;20473;-66
2021/03/24 07:11:45;;;;;;;65.28;41.40;;;10.10;99.90;;;;;;5087153;28;20036;-65
2021/03/24 07:14:35;;;;;;;61.47;38.88;;;10.70;99.90;;;;;;5095680;28;20048;-65
2021/03/24 07:17:30;;;;;;;58.60;37.67;;;10.90;99.90;;;;;;5100153;28;20035;-65
2021/03/24 07:20:30;;;;;;;62.78;37.38;;;11.30;99.90;;;;;;5107499;28;20484;-65
2021/03/24 07:23:27;;;;;;;62.67;37.42;;;11.60;99.90;;;;;;5095974;28;20058;-65
2021/03/24 07:26:09;;;;;;;61.17;37.95;;;11.70;99.90;;;;;;5096095;28;20477;-66
2021/03/24 07:29:01;;;;;;;61.92;38.22;;;11.60;99.90;;;;;;5075969;28;20582;-65
2021/03/24 07:31:57;;;;;;;57.33;37.30;;;11.30;99.90;;;;;;5076709;28;20032;-65
2021/03/24 07:35:09;;;;;;;58.63;36.10;;;11.50;99.90;;;;;;5090779;28;20043;-65
2021/03/24 07:38:04;;;;;;;57.25;36.00;;;11.60;99.90;;;;;;5083971;28;20052;-67
2021/03/24 07:40:59;;;;;;;61.05;36.22;;;11.80;99.90;;;;;;5087594;28;20138;-65
2021/03/24 07:43:46;;;;;;;62.42;35.33;;;12.40;99.90;;;;;;5090066;28;20169;-66
2021/03/24 07:46:40;;;;;;;59.63;36.58;;;12.60;99.90;;;;;;5089379;28;20036;-66
2021/03/24 07:49:51;;;;;;;53.42;32.45;;;12.70;99.90;;;;;;5088807;28;20531;-66
2021/03/24 07:52:42;;;;;;;64.63;35.47;;;12.90;99.90;;;;;;5090341;28;20374;-66
2021/03/24 07:55:15;;;;;;;56.55;33.97;;;12.60;99.90;;;;;;5091855;28;20485;-66
2021/03/24 07:57:57;;;;;;;57.65;33.05;;;13.10;99.90;;;;;;5089211;28;20474;-66
2021/03/24 08:00:46;;;;;;;57.67;31.80;;;13.20;99.90;;;;;;5088222;28;20482;-66
2021/03/24 08:03:43;;;;;;;49.35;32.80;;;13.50;99.90;;;;;;5092437;28;20032;-66
2021/03/24 08:06:25;;;;;;;55.55;31.38;;;14.20;99.90;;;;;;5092155;28;20028;-66
2021/03/24 08:09:06;;;;;;;53.47;30.35;;;14.30;99.90;;;;;;5093520;28;20031;-66
2021/03/24 08:12:11;;;;;;;52.65;31.48;;;13.90;99.90;;;;;;5085019;28;20037;-66
2021/03/24 08:15:08;;;;;;;47.75;30.00;;;13.90;99.90;;;;;;5081470;28;21676;-66
2021/03/24 08:18:03;;;;;;;45.85;29.15;;;14.40;99.90;;;;;;5090058;28;20055;-66
2021/03/24 08:20:56;;;;;;;47.95;30.67;;;15.30;99.90;;;;;;5095191;28;20062;-66
2021/03/24 08:23:52;;;;;;;51.72;29.45;;;15.90;99.90;;;;;;5093038;28;20112;-66
2021/03/24 08:26:25;;;;;;;49.38;30.13;;;15.90;99.90;;;;;;5092362;28;20020;-65
2021/03/24 08:29:10;;;;;;;47.00;28.48;;;15.90;99.90;;;;;;5091047;28;20057;-65
2021/03/24 08:32:03;;;;;;;53.53;29.98;;;15.50;99.90;;;;;;5090900;28;20465;-65
2021/03/24 08:34:57;;;;;;;53.58;30.70;;;15.10;99.90;;;;;;5089721;28;20056;-65
2021/03/24 08:40:54;;;;;;;57.60;30.80;;;15.10;99.90;;;;;;4976623;28;20371;-65
2021/03/24 08:46:42;;;;;;;52.83;31.63;;;15.00;99.90;;;;;;5092428;27;20375;-65
2021/03/24 08:49:14;;;;;;;49.80;31.08;;;15.90;99.90;;;;;;5086376;28;20056;-69
2021/03/24 08:52:01;;;;;;;49.15;30.88;;;16.10;99.90;;;;;;5087587;28;20141;-65
2021/03/24 08:54:53;;;;;;;54.20;31.92;;;16.40;99.90;;;;;;5087655;28;20031;-66
2021/03/24 08:57:39;;;;;;;52.35;33.22;;;15.40;99.90;;;;;;5083930;28;20028;-66
2021/03/24 09:00:27;;;;;;;57.80;33.60;;;15.80;99.90;;;;;;5084616;28;20028;-66
2021/03/24 09:03:33;;;;;;;55.90;34.72;;;16.10;99.90;;;;;;5088972;28;20032;-66
2021/03/24 09:06:38;;;;;;;53.60;32.90;;;16.60;99.90;;;;;;5090118;28;20036;-66
2021/03/24 09:09:17;;;;;;;53.38;32.88;;;16.80;99.90;;;;;;5092208;28;20068;-66
2021/03/24 09:12:22;;;;;;;51.70;31.27;;;16.40;99.90;;;;;;5104802;28;20028;-65
2021/03/24 09:15:03;;;;;;;62.40;34.78;;;15.90;99.90;;;;;;5088136;28;20469;-66
2021/03/24 09:20:44;;;;;;;61.97;34.78;;;17.00;99.90;;;;;;5108478;27;20420;-66
2021/03/24 09:23:39;;;;;;;66.35;37.53;;;16.30;99.90;;;;;;5090251;28;20028;-66
2021/03/24 09:26:40;;;;;;;63.70;37.58;;;16.30;99.90;;;;;;5096857;28;20027;-66
2021/03/24 09:29:35;;;;;;;61.38;38.20;;;16.30;99.90;;;;;;5089577;28;20028;-66
2021/03/24 09:32:36;;;;;;;65.40;38.28;;;17.10;99.70;;;;;;5088310;28;20055;-66
2021/03/24 09:35:29;;;;;;;71.88;40.70;;;17.10;99.90;;;;;;5088355;28;20044;-66
2021/03/24 09:38:02;;;;;;;64.22;38.17;;;17.20;99.70;;;;;;5092732;28;20066;-67
2021/03/24 09:40:40;;;;;;;61.33;37.63;;;17.60;98.10;;;;;;5090767;28;20020;-66
2021/03/24 09:43:32;;;;;;;64.55;37.83;;;17.60;97.40;;;;;;5086522;28;20027;-67
2021/03/24 09:46:11;;;;;;;62.97;39.10;;;17.40;97.00;;;;;;5086105;28;20028;-67
2021/03/24 09:48:49;;;;;;;70.63;41.25;;;17.40;99.00;;;;;;5093854;28;20024;-67
2021/03/24 09:51:19;;;;;;;65.90;39.08;;;17.90;96.90;;;;;;5074904;28;20028;-67
2021/03/24 09:53:45;;;;;;;64.90;38.70;;;17.70;97.60;;;;;;5090704;28;20024;-67
2021/03/24 09:56:26;;;;;;;61.85;38.97;;;18.30;94.10;;;;;;5093538;28;20027;-67
2021/03/24 09:59:00;;;;;;;66.38;39.85;;;18.30;91.80;;;;;;5092769;28;20059;-66
2021/03/24 10:01:38;;;;;;;67.70;41.38;;;18.60;91.00;;;;;;5089491;28;20024;-65
2021/03/24 10:04:30;;;;;;;62.22;40.35;;;18.10;93.70;;;;;;5085385;28;20028;-66
2021/03/24 10:07:22;;;;;;;73.18;42.13;;;18.10;93.20;;;;;;5092416;28;20016;-66
2021/03/24 10:09:55;;;;;;;69.93;40.28;;;18.20;93.60;;;;;;5096098;28;20024;-66
2021/03/24 10:12:31;;;;;;;69.90;41.63;;;18.10;94.90;;;;;;5106427;28;20024;-66
2021/03/24 10:15:10;;;;;;;71.82;41.67;;;18.30;92.10;;;;;;5100073;28;20034;-65
2021/03/24 10:20:29;;;;;;;65.15;40.00;;;18.10;91.10;;;;;;5091533;27;20414;-64
2021/03/24 10:23:02;;;;;;;71.15;41.45;;;18.80;91.30;;;;;;5082211;28;20099;-63
2021/03/24 10:25:40;;;;;;;73.75;43.00;;;19.00;90.30;;;;;;5086162;28;20104;-64
2021/03/24 10:28:29;;;;;;;68.45;40.75;;;18.50;90.80;;;;;;5081291;28;20028;-63
2021/03/24 10:31:01;;;;;;;64.72;38.05;;;18.30;90.80;;;;;;5079003;28;20119;-66
2021/03/24 10:33:49;;;;;;;70.97;41.72;;;17.90;92.10;;;;;;5081809;28;20024;-66
2021/03/24 10:36:37;;;;;;;63.83;39.45;;;17.90;93.10;;;;;;5089284;28;20028;-67
2021/03/24 10:42:15;;;;;;;62.38;39.03;;;17.70;93.00;;;;;;5103510;27;20360;-66
2021/03/24 10:45:06;;;;;;;67.30;39.85;;;18.30;91.30;;;;;;5108324;28;20094;-68
2021/03/24 10:47:58;;;;;;;68.10;38.35;;;18.10;92.10;;;;;;5109460;28;20034;-65
2021/03/24 10:50:49;;;;;;;69.45;40.58;;;18.30;92.20;;;;;;5108185;28;20063;-66
2021/03/24 10:53:33;;;;;;;60.58;39.45;;;18.10;91.60;;;;;;5108914;28;20396;-66
2021/03/24 10:56:37;;;;;;;67.82;39.67;;;17.90;93.40;;;;;;5109303;28;20488;-66
2021/03/24 10:59:12;;;;;;;64.22;36.63;;;17.90;93.10;;;;;;5107037;28;20512;-66
2021/03/24 11:02:02;;;;;;;61.08;36.80;;;18.10;90.80;;;;;;5109194;28;20073;-66
2021/03/24 11:04:54;;;;;;;65.20;37.33;;;18.80;85.40;;;;;;5105874;28;20026;-66
2021/03/24 11:07:33;;;;;;;60.75;37.00;;;18.30;87.20;;;;;;5108130;28;20028;-66
2021/03/24 11:10:30;;;;;;;60.90;37.92;;;18.20;90.50;;;;;;5105135;28;20487;-65
2021/03/24 11:13:02;;;;;;;63.10;37.33;;;18.50;84.60;;;;;;5104378;28;20032;-66
2021/03/24 11:16:00;;;;;;;62.10;36.70;;;18.80;81.20;;;;;;5103282;28;20028;-66
2021/03/24 11:18:33;;;;;;;64.50;37.40;;;18.90;89.30;;;;;;5108338;28;20023;-67
2021/03/24 11:21:03;;;;;;;62.33;37.72;;;18.80;83.10;;;;;;5109061;28;20028;-67
2021/03/24 11:23:42;;;;;;;65.38;38.90;;;18.70;83.50;;;;;;5106801;28;20036;-66
2021/03/24 11:29:10;;;;;;;68.75;38.80;;;18.10;85.90;;;;;;5077340;27;20524;-67
2021/03/24 11:32:15;;;;;;;63.75;37.60;;;18.00;90.30;;;;;;5067748;28;20021;-66
2021/03/24 11:34:48;;;;;;;70.72;37.13;;;17.90;90.30;;;;;;5057703;28;20027;-65
2021/03/24 11:40:26;;;;;;;64.55;43.50;;;16.50;94.90;;;;;;5068409;28;20478;-67
2021/03/24 11:43:03;;;;;;;63.05;36.83;;;16.80;95.30;;;;;;5048380;28;20389;-66
2021/03/24 11:45:31;;;;;;;66.20;36.85;;;16.70;92.80;;;;;;5048414;28;20017;-66
2021/03/24 11:48:28;;;;;;;65.78;36.30;;;17.00;94.40;;;;;;5048509;28;20025;-67
2021/03/24 11:51:10;;;;;;;65.07;35.95;;;16.80;93.60;;;;;;5047170;28;20037;-66
2021/03/24 11:54:14;;;;;;;65.72;35.28;;;16.90;93.10;;;;;;5047083;28;20025;-67
2021/03/24 11:57:04;;;;;;;64.03;35.05;;;17.10;94.20;;;;;;5043158;28;20402;-67
2021/03/24 11:59:44;;;;;;;64.22;34.47;;;17.20;91.30;;;;;;5045535;28;20493;-66
2021/03/24 12:02:21;;;;;;;65.32;34.13;;;16.30;93.20;;;;;;5047098;28;20017;-67
2021/03/24 12:05:14;;;;;;;62.88;35.35;;;16.30;91.30;;;;;;5046073;28;20403;-65
2021/03/24 12:08:20;;;;;;;68.03;37.53;;;16.40;94.90;;;;;;5036685;28;20475;-68
2021/03/24 12:11:03;;;;;;;64.95;36.22;;;16.70;94.40;;;;;;5030834;28;20040;-69
2021/03/24 12:13:35;;;;;;;63.65;36.03;;;16.80;92.90;;;;;;5035970;28;20068;-69
2021/03/24 12:16:19;;;;;;;67.22;35.53;;;16.90;94.90;;;;;;5040730;28;20079;-69
2021/03/24 12:18:51;;;;;;;64.35;35.25;;;17.20;94.20;;;;;;5048847;28;20417;-68
2021/03/24 12:21:24;;;;;;;75.35;35.50;;;17.00;93.80;;;;;;5050873;28;20104;-69
2021/03/24 12:23:52;;;;;;;65.45;33.30;;;17.30;92.00;;;;;;5048375;28;20473;-69
2021/03/24 12:26:31;;;;;;;63.22;33.17;;;17.00;85.40;;;;;;5047562;28;20025;-69
2021/03/24 12:29:22;;;;;;;72.03;33.95;;;17.00;90.80;;;;;;5044660;28;20080;-69
2021/03/24 12:31:55;;;;;;;64.75;34.75;;;17.10;88.90;;;;;;5042955;28;20049;-69
2021/03/24 12:34:22;;;;;;;65.20;34.07;;;16.80;90.80;;;;;;5048313;28;20095;-69
2021/03/24 12:36:54;;;;;;;68.65;34.53;;;16.70;90.80;;;;;;5043891;28;20033;-70
2021/03/24 12:39:34;;;;;;;67.40;34.75;;;16.90;90.30;;;;;;5043137;28;20037;-69
2021/03/24 12:42:22;;;;;;;68.70;35.22;;;16.80;88.30;;;;;;5043919;28;20032;-69
2021/03/24 12:44:48;;;;;;;67.90;35.25;;;17.00;88.40;;;;;;5044683;28;20151;-69
2021/03/24 12:47:38;;;;;;;65.20;35.15;;;17.10;89.20;;;;;;5039929;28;20049;-68
2021/03/24 12:53:04;;;;;;;72.40;36.60;;;17.10;91.00;;;;;;5103993;27;20432;-67
2021/03/24 12:55:31;;;;;;;67.30;35.58;;;17.10;87.40;;;;;;5092362;28;20481;-67
2021/03/24 12:58:20;;;;;;;72.68;36.90;;;16.80;90.60;;;;;;5089615;28;20115;-67
2021/03/24 13:01:25;;;;;;;67.53;35.88;;;16.50;90.40;;;;;;5089762;28;20052;-67
2021/03/24 13:04:27;;;;;;;69.43;34.65;;;16.50;88.80;;;;;;5081684;28;20024;-67
2021/03/24 13:07:33;;;;;;;66.53;34.85;;;16.30;92.60;;;;;;5086891;28;20586;-67
2021/03/24 13:10:21;;;;;;;65.40;32.58;;;16.70;93.00;;;;;;5098478;28;20068;-67
2021/03/24 13:12:55;;;;;;;67.75;33.03;;;16.90;90.60;;;;;;5085049;28;20029;-67
2021/03/24 13:18:25;;;;;;;62.80;30.48;;;16.90;87.40;;;;;;5110227;27;20111;-67
2021/03/24 13:21:20;;;;;;;61.13;30.37;;;17.10;77.20;;;;;;5088871;28;20542;-67
2021/03/24 13:24:08;;;;;;;59.10;29.63;;;17.00;80.50;;;;;;5089808;28;20596;-66
2021/03/24 13:26:36;;;;;;;62.83;29.98;;;16.40;83.10;;;;;;5089114;28;20086;-66
2021/03/24 13:29:46;;;;;;;62.03;30.05;;;16.70;83.50;;;;;;5086470;28;20020;-66
2021/03/24 13:32:28;;;;;;;61.03;30.08;;;16.80;88.20;;;;;;5092329;28;20039;-66
2021/03/24 13:35:25;;;;;;;65.55;31.13;;;16.80;84.30;;;;;;5093857;28;20031;-67
2021/03/24 13:37:50;;;;;;;64.13;32.17;;;16.60;87.80;;;;;;5102396;28;20035;-68
2021/03/24 13:40:25;;;;;;;62.33;31.15;;;17.00;90.00;;;;;;5081371;28;20390;-67
2021/03/24 13:42:57;;;;;;;65.03;31.02;;;16.90;83.80;;;;;;5120682;27;20035;-67
2021/03/24 13:45:36;;;;;;;64.82;31.52;;;16.90;88.60;;;;;;5086800;28;20024;-66
2021/03/24 13:48:11;;;;;;;60.08;29.98;;;17.10;86.70;;;;;;5088539;28;20028;-67
2021/03/24 13:50:43;;;;;;;47.90;25.77;;;17.20;84.70;;;;;;5077961;28;20079;-66
2021/03/24 13:53:20;;;;;;;52.10;25.38;;;17.10;76.40;;;;;;5119041;27;20032;-67
2021/03/24 13:56:10;;;;;;;52.50;27.15;;;17.00;82.70;;;;;;5092427;28;20028;-67
2021/03/24 13:59:15;;;;;;;50.78;25.70;;;17.20;84.00;;;;;;5072132;28;20016;-66
2021/03/24 14:02:20;;;;;;;50.22;27.30;;;17.10;79.10;;;;;;5091415;28;20085;-67
2021/03/24 14:05:00;;;;;;;51.28;25.98;;;17.20;80.20;;;;;;5086694;28;20115;-66
2021/03/24 14:08:05;;;;;;;49.42;25.85;;;17.10;79.80;;;;;;5089697;28;20095;-67